Goldfield, Nevada Weather observations

Data are for observation ending at time listed.
 Day   Time    Ave.   Ave.  Ave.  Vector   Max.   Stn.    Total    Solar   Ave.  
  of    of     Air    Rel.  Wind   Wind    Wind   Baro.  Precip.   Rad.    Soil  
Year   Day     Temp.  Hum.  Speed  Dir.    Gust   Pres.                    Temp. 
2016   (PST)    F      %     mph   deg.    mph     mb.     in.     W/m2     F   
------------------------------------------------------------------------------
 119    6:20   42.7    63   19.2   323     26.5   819.8    0.00     295    45.9
 119    6:30   43.2    63   16.9   325     27.2   819.9    0.00     282    45.9
 119    6:40   43.3    61   19.7   319     26.7   819.8    0.00     306    45.9
 119    6:50   44.3    58   19.8   322     27.6   819.8    0.00     496    45.9
 119    7:00   45.3    56   20.8   321     28.1   819.8    0.00     438    45.9
 119    7:10   43.9    58   21.1   319     29.3   819.7    0.00     310    46.1
 119    7:20   44.3    58   20.8   318     28.9   819.6    0.00     451    45.9
 119    7:30   47.3    54   16.1   310     24.8   819.7    0.00     489    46.1
 119    7:40   44.7    58   18.4   308     27.1   819.8    0.00     166    46.2
 119    7:50   43.4    59   18.8   311     26.9   819.8    0.00     178    46.3
 119    8:00   43.9    57   18.8   318     25.8   819.9    0.00     201    46.4
 119    8:10   43.9    57   18.1   320     27.8   820.0    0.00     194    46.4
 119    8:20   44.7    56   16.7   312     23.1   820.0    0.00     223    46.5
 119    8:30   44.9    55   18.7   315     28.5   820.1    0.00     246    46.5
 119    8:40   45.5    53   17.1   316     26.6   820.0    0.00     264    46.6
 119    8:50   46.3    51   18.8   318     27.0   820.0    0.00     349    46.7
 119    9:00   47.8    49   19.0   325     30.1   819.9    0.00     682    46.8
 119    9:10   48.0    47   21.6   335     31.7   819.8    0.00     851    46.9
 119    9:20   48.2    46   20.2   317     29.1   819.9    0.00     400    46.9
 119    9:30   47.9    46   19.9   319     29.4   819.9    0.00     340    47.0
 119    9:40   48.5    45   21.6   328     31.9   819.9    0.00     581    47.3
 119    9:50   49.2    43   22.8   327     32.4   820.0    0.00     653    47.4
 119   10:00   49.5    43   22.4   328     33.3   820.1    0.00     686    47.5
 119   10:10   49.3    42   23.1   332     31.8   820.1    0.00     606    47.8
 119   10:20   49.6    42   21.1   323     31.4   820.2    0.00     596    47.9
 119   10:30   50.1    41   22.2   331     32.1   820.2    0.00     569    48.2
 119   10:40   50.3    41   22.1   329     30.3   820.2    0.00     884    48.5
 119   10:50   51.1    40   21.8   326     32.5   820.3    0.00     729    48.7
 119   11:00   50.7    40   23.4   331     37.3   820.3    0.00     521    48.8
 119   11:10   50.5    41   21.8   329     32.3   820.3    0.00     540    49.1
 119   11:20   50.5    41   23.9   329     35.2   820.4    0.00     451    49.3
 119   11:30   50.4    42   20.7   321     31.0   820.5    0.00     395    49.5
 119   11:40   51.2    41   21.9   322     32.4   820.5    0.00     647    49.7
 119   11:50   51.7    41   22.2   319     31.5   820.5    0.00     563    49.8
 119   12:00   51.7    40   25.3   327     34.5   820.4    0.00     832    50.0
 119   12:10   53.2    38   24.5   325     35.7   820.4    0.00     924    50.2
 119   12:20   52.7    39   23.7   331     36.4   820.3    0.00     771    50.3
 119   12:30   52.7    40   25.1   326     37.0   820.5    0.00     808    50.6
 119   12:40   53.8    38   25.9   331     38.1   820.4    0.00    1122    50.7
 119   12:50   54.5    37   25.6   328     34.6   820.5    0.00     886    51.1
 119   13:00   54.0    38   25.5   328     36.3   820.6    0.00     799    51.4
 119   13:10   53.9    37   25.0   332     34.0   820.7    0.00     981    51.5
 119   13:20   54.0    37   23.4   320     34.4   820.9    0.00     659    51.8
 119   13:30   52.6    41   23.7   326     32.4   820.9    0.00     279    51.9
 119   13:40   51.2    44   22.1   330     32.2   821.1    0.00     214    52.1
 119   13:50   50.6    44   21.7   331     31.5   821.2    0.00     124    52.3
 119   14:00   50.1    45   25.1   328     33.6   821.3    0.00     181    52.4
 119   14:10   50.2    46   23.9   330     35.2   821.4    0.00     224    52.3
 119   14:20   49.7    48   23.5   328     33.4   821.4    0.00     137    52.3
 119   14:30   47.9    58   21.4   337     33.0   821.5    0.00     178    52.4
 119   14:40   46.2    66   25.0   333     34.4   821.6    0.00     247    52.4
 119   14:50   47.4    60   24.8   330     34.5   821.7    0.00     494    52.3
 119   15:00   49.4    53   25.3   330     34.0   821.6    0.00     551    52.3
 119   15:10   48.2    57   23.7   334     32.2   821.5    0.00     361    52.2
 119   15:20   48.1    58   24.7   333     36.8   821.5    0.00     308    52.3
 119   15:30   47.2    61   24.5   333     36.4   821.8    0.00     394    52.2
 119   15:40   48.6    58   22.4   328     31.6   821.9    0.00     596    52.1
 119   15:50   49.4    56   18.8   322     25.9   822.0    0.00     481    52.2
 119   16:00   50.3    54   20.5   317     30.9   822.0    0.00     530    52.1
 119   16:10   50.7    54   21.2   313     30.0   821.9    0.00     502    52.1
 119   16:20   50.6    54   17.9   311     25.3   822.1    0.00     376    52.0
 119   16:30   50.8    54   17.3   315     24.3   822.3    0.00     474    52.0
 119   16:40   51.5    53   15.6   314     23.3   822.3    0.00     395    52.0
 119   16:50   51.2    52   18.3   318     24.7   822.2    0.00     410    52.0
 119   17:00   52.0    50   17.8   319     25.6   822.2    0.00     332    52.0
 119   17:10   50.6    48   19.5   330     28.4   822.2    0.00      91    51.9
 119   17:20   49.6    46   18.7   329     26.5   822.3    0.00      47    52.0
 119   17:30   49.1    46   17.7   335     25.5   822.4    0.00      44    52.0
 119   17:40   49.1    46   17.4   338     24.0   822.5    0.00      54    51.9
 119   17:50   49.1    47   15.9   338     23.3   822.6    0.00      39    51.9
 119   18:00   49.1    47   15.5   330     23.1   822.8    0.00      32    51.9
 119   18:10   49.1    47   14.1   331     18.9   822.9    0.00      41    51.8
 119   18:20   49.1    48   17.3   327     25.1   823.0    0.00      40    51.7
 119   18:30   48.9    51   18.4   322     27.2   823.1    0.00      24    51.8
 119   18:40   48.5    54   16.9   332     25.0   823.1    0.00      13    51.8
 119   18:50   48.6    53   15.9   332     22.3   823.2    0.00       4    51.6
 119   19:00   48.4    52   17.4   330     23.7   823.3    0.00       0    51.5
 119   19:10   48.1    52   17.8   329     24.5   823.6    0.00       0    51.5
 119   19:20   48.0    54   16.8   328     23.2   823.7    0.00       0    51.5
 119   19:30   47.7    55   16.9   331     25.9   823.7    0.00       0    51.2
 119   19:40   47.4    57   17.5   328     23.9   823.7    0.00       0    51.4
 119   19:50   47.3    57   17.2   326     24.5   824.0    0.00       0    51.2
 119   20:00   47.3    57   15.9   328     21.9   824.1    0.00       0    51.0
 119   20:10   47.2    58   15.4   325     25.0   824.2    0.00       0    51.0
 119   20:20   47.1    58   15.1   330     24.4   824.4    0.00       0    51.1
 119   20:30   46.9    59   14.1   330     21.8   824.6    0.00       0    51.0
 119   20:40   46.9    59   13.8   329     19.1   824.7    0.00       0    50.9
 119   20:50   46.7    60   12.9   332     19.8   824.9    0.00       0    50.8
 119   21:00   46.5    61   13.6   335     19.1   825.0    0.00       0    50.7
 119   21:10   46.3    62   12.0   338     19.4   825.1    0.00       0    50.7
 119   21:20   46.0    63   11.9   340     17.4   825.1    0.00       0    50.8
 119   21:30   45.8    63   12.6   337     17.8   825.2    0.00       0    50.6
 119   21:40   45.5    64   11.8   336     17.3   825.2    0.00       0    50.5
 119   21:50   45.0    65   11.7   336     16.7   825.3    0.00       0    50.5
 119   22:00   44.4    67   11.4   336     15.7   825.3    0.00       0    50.5
 119   22:10   44.4    67   11.9   330     17.7   825.3    0.00       0    50.3
 119   22:20   44.1    67   12.2   323     18.0   825.3    0.00       0    50.3
 119   22:30   44.1    68   11.3   324     16.8   825.3    0.00       0    50.2
 119   22:40   43.7    69    9.8   323     13.8   825.4    0.00       0    50.1
 119   22:50   43.4    70    7.0   327     11.0   825.5    0.00       0    50.0
 119   23:00   43.3    70    5.2   328      8.0   825.6    0.00       0    50.0
 119   23:10   43.5    70    7.3   320     12.0   825.7    0.00       0    49.9
 119   23:20   43.6    70    8.2   318     11.5   825.7    0.00       0    49.9
 119   23:30   43.1    72    7.0   311     10.3   825.6    0.00       0    49.6
 119   23:40   42.9    72    6.6   310      9.9   825.7    0.00       1    49.7
 119   23:50   43.0    72    5.3   310      8.3   825.9    0.00       0    49.6
 120    0:00   42.9    73    5.2   308      8.4   825.9    0.00       0    49.6
 120    0:10   42.4    74    6.9   310     11.2   825.9    0.00       0    49.5
 120    0:20   42.3    73    6.8   306      9.4   825.9    0.00       0    49.4
 120    0:30   42.1    74    5.8   305      9.6   825.9    0.00       0    49.3
 120    0:40   42.1    73    6.6   308     10.6   825.9    0.00       0    49.3
 120    0:50   42.6    72    5.4   327      8.4   826.0    0.00       0    49.2
 120    1:00   42.7    72    4.1   346      6.3   825.9    0.00       0    49.2
 120    1:10   42.4    72    3.2   352      5.5   825.8    0.00       0    49.1
 120    1:20   42.0    73    2.1     7      4.4   825.7    0.00       0    49.1
 120    1:30   41.6    74    5.3   359      8.3   825.6    0.00       0    49.0
 120    1:40   41.0    75    2.8   291      5.6   825.7    0.00       1    49.0
 120    1:50   40.2    77    3.1   277      5.6   825.7    0.00       0    49.0
 120    2:00   40.2    77    1.8   271      3.6   825.7    0.00       0    48.7
 120    2:10   40.3    77    1.5   290      2.5   825.6    0.00       0    48.8
 120    2:20   40.0    77    1.7   258      3.1   825.7    0.00       0    48.6
 120    2:30   39.3    79    0.5   302      2.0   825.7    0.00       0    48.6
 120    2:40   39.1    80    0.4   244      1.5   825.7    0.00       0    48.5
 120    2:50   38.7    79    0.7   249      2.0   825.7    0.00       0    48.5
 120    3:00   38.4    80    1.9   238      2.9   825.7    0.00       0    48.4
 120    3:10   38.5    80    1.3   235      1.9   825.7    0.00       0    48.3
 120    3:20   39.0    80    1.1   241      1.7   825.7    0.00       0    48.2
 120    3:30   38.7    79    1.3   256      2.1   825.6    0.00       0    48.2
 120    3:40   37.5    80    1.0   128      2.5   825.6    0.00       0    48.3
 120    3:50   36.6    84    1.5   164      2.3   825.6    0.00       0    47.9
 120    4:00   37.2    84    1.3   216      2.3   825.6    0.00       0    47.9
 120    4:10   37.6    82    2.4   268      3.7   825.7    0.00       0    47.8
 120    4:20   37.4    83    2.9   274      4.0   825.7    0.00       0    47.7
 120    4:30   37.7    81    2.3   263      3.4   825.8    0.00       0    47.7
 120    4:40   37.6    81    2.6   280      3.5   825.8    0.00       0    47.6
 120    4:50   37.4    80    3.5   276      5.0   825.9    0.00       0    47.5
 120    5:00   37.4    80    2.5   289      5.0   826.0    0.00       5    47.4
 120    5:10   37.4    80    1.1   311      3.4   826.1    0.00      12    47.3
 120    5:20   37.3    80    0.7    44      2.2   826.2    0.00      19    47.3
 120    5:30   38.0    79    1.3    15      3.6   826.3    0.00      56    47.2
 120    5:40   41.3    71    0.3    44      1.7   826.3    0.00     109    47.1
 120    5:50   43.8    65    0.0    55      0.5   826.4    0.00     151    47.0
 120    6:00   43.9    65    1.0    99      1.8   826.4    0.00      92    47.0
 120    6:10   43.2    67    1.8   100      2.7   826.3    0.00     168    46.9

Return to Goldfield, Nevada graphs page.


Western Regional Climate Center,wrcc@dri.edu